sensor_id;sensor_type;location;lat;lon;timestamp;pressure;altitude;pressure_sealevel;temperature;humidity
53270;BME280;39159;45.634;9.420;2023-10-08T00:01:34;99690.63;;;18.20;100.00
53270;BME280;39159;45.634;9.420;2023-10-08T00:04:00;99683.66;;;18.23;100.00
53270;BME280;39159;45.634;9.420;2023-10-08T00:06:29;99695.28;;;18.29;100.00
53270;BME280;39159;45.634;9.420;2023-10-08T00:08:56;99688.94;;;18.28;100.00
53270;BME280;39159;45.634;9.420;2023-10-08T00:11:26;99690.91;;;18.28;100.00
53270;BME280;39159;45.634;9.420;2023-10-08T00:13:51;99686.19;;;18.28;100.00
53270;BME280;39159;45.634;9.420;2023-10-08T00:16:21;99687.69;;;18.26;100.00
53270;BME280;39159;45.634;9.420;2023-10-08T00:18:47;99687.94;;;18.12;100.00
53270;BME280;39159;45.634;9.420;2023-10-08T00:21:17;99695.88;;;18.01;100.00
53270;BME280;39159;45.634;9.420;2023-10-08T00:23:46;99688.47;;;17.93;100.00
53270;BME280;39159;45.634;9.420;2023-10-08T00:26:21;99696.16;;;17.87;100.00
53270;BME280;39159;45.634;9.420;2023-10-08T00:28:55;99693.38;;;17.87;100.00
53270;BME280;39159;45.634;9.420;2023-10-08T00:31:21;99702.41;;;17.75;100.00
53270;BME280;39159;45.634;9.420;2023-10-08T00:33:51;99695.75;;;17.76;100.00
53270;BME280;39159;45.634;9.420;2023-10-08T00:36:16;99690.22;;;17.76;100.00
53270;BME280;39159;45.634;9.420;2023-10-08T00:38:49;99692.84;;;17.73;100.00
53270;BME280;39159;45.634;9.420;2023-10-08T00:41:20;99673.03;;;17.71;100.00
53270;BME280;39159;45.634;9.420;2023-10-08T00:43:53;99672.56;;;17.69;100.00
53270;BME280;39159;45.634;9.420;2023-10-08T00:46:21;99678.31;;;17.64;100.00
53270;BME280;39159;45.634;9.420;2023-10-08T00:48:53;99667.47;;;17.58;100.00
53270;BME280;39159;45.634;9.420;2023-10-08T00:51:28;99662.88;;;17.63;100.00
53270;BME280;39159;45.634;9.420;2023-10-08T00:54:06;99663.03;;;17.66;100.00
53270;BME280;39159;45.634;9.420;2023-10-08T00:56:45;99658.53;;;17.61;100.00
53270;BME280;39159;45.634;9.420;2023-10-08T00:59:14;99660.34;;;17.57;100.00
53270;BME280;39159;45.634;9.420;2023-10-08T01:01:42;99653.78;;;17.62;100.00
53270;BME280;39159;45.634;9.420;2023-10-08T01:04:18;99655.28;;;17.59;100.00
53270;BME280;39159;45.634;9.420;2023-10-08T01:06:49;99658.72;;;17.56;100.00
53270;BME280;39159;45.634;9.420;2023-10-08T01:09:19;99655.81;;;17.53;100.00
53270;BME280;39159;45.634;9.420;2023-10-08T01:12:07;99648.22;;;17.50;100.00
53270;BME280;39159;45.634;9.420;2023-10-08T01:14:32;99644.00;;;17.52;100.00
53270;BME280;39159;45.634;9.420;2023-10-08T01:16:58;99647.88;;;17.51;100.00
53270;BME280;39159;45.634;9.420;2023-10-08T01:19:23;99640.41;;;17.52;100.00
53270;BME280;39159;45.634;9.420;2023-10-08T01:21:50;99643.50;;;17.50;100.00
53270;BME280;39159;45.634;9.420;2023-10-08T01:24:16;99637.06;;;17.46;100.00
53270;BME280;39159;45.634;9.420;2023-10-08T01:26:42;99640.81;;;17.42;100.00
53270;BME280;39159;45.634;9.420;2023-10-08T01:29:12;99631.75;;;17.41;100.00
53270;BME280;39159;45.634;9.420;2023-10-08T01:31:47;99633.69;;;17.40;100.00
53270;BME280;39159;45.634;9.420;2023-10-08T01:34:18;99637.75;;;17.43;100.00
53270;BME280;39159;45.634;9.420;2023-10-08T01:36:43;99632.22;;;17.43;100.00
53270;BME280;39159;45.634;9.420;2023-10-08T01:39:10;99625.22;;;17.46;100.00
53270;BME280;39159;45.634;9.420;2023-10-08T01:41:42;99627.28;;;17.49;100.00
53270;BME280;39159;45.634;9.420;2023-10-08T01:44:08;99623.03;;;17.51;100.00
53270;BME280;39159;45.634;9.420;2023-10-08T01:46:33;99630.72;;;17.46;100.00
53270;BME280;39159;45.634;9.420;2023-10-08T01:49:00;99626.41;;;17.36;100.00
53270;BME280;39159;45.634;9.420;2023-10-08T01:51:30;99623.53;;;17.32;100.00
53270;BME280;39159;45.634;9.420;2023-10-08T01:54:09;99625.34;;;17.28;100.00
53270;BME280;39159;45.634;9.420;2023-10-08T01:56:38;99624.53;;;17.28;100.00
53270;BME280;39159;45.634;9.420;2023-10-08T01:59:07;99620.97;;;17.27;100.00
53270;BME280;39159;45.634;9.420;2023-10-08T02:01:34;99612.63;;;17.36;100.00
53270;BME280;39159;45.634;9.420;2023-10-08T02:03:59;99616.66;;;17.38;100.00
53270;BME280;39159;45.634;9.420;2023-10-08T02:06:24;99612.63;;;17.36;100.00
53270;BME280;39159;45.634;9.420;2023-10-08T02:08:50;99608.59;;;17.33;100.00
53270;BME280;39159;45.634;9.420;2023-10-08T02:11:15;99616.66;;;17.38;100.00
53270;BME280;39159;45.634;9.420;2023-10-08T02:13:41;99605.16;;;17.36;100.00
53270;BME280;39159;45.634;9.420;2023-10-08T02:16:07;99610.31;;;17.38;100.00
53270;BME280;39159;45.634;9.420;2023-10-08T02:18:33;99613.44;;;17.36;100.00
53270;BME280;39159;45.634;9.420;2023-10-08T02:20:58;99614.25;;;17.37;100.00
53270;BME280;39159;45.634;9.420;2023-10-08T02:23:24;99609.38;;;17.34;100.00
53270;BME280;39159;45.634;9.420;2023-10-08T02:25:49;99611.56;;;17.28;100.00
53270;BME280;39159;45.634;9.420;2023-10-08T02:28:15;99601.47;;;17.32;100.00
53270;BME280;39159;45.634;9.420;2023-10-08T02:30:41;99601.00;;;17.30;100.00
53270;BME280;39159;45.634;9.420;2023-10-08T02:33:08;99610.41;;;17.29;100.00
53270;BME280;39159;45.634;9.420;2023-10-08T02:35:48;99605.34;;;17.31;100.00
53270;BME280;39159;45.634;9.420;2023-10-08T02:38:16;99598.72;;;17.32;100.00
53270;BME280;39159;45.634;9.420;2023-10-08T02:40:42;99601.47;;;17.32;100.00
53270;BME280;39159;45.634;9.420;2023-10-08T02:43:13;99600.63;;;17.32;100.00
53270;BME280;39159;45.634;9.420;2023-10-08T02:45:43;99597.56;;;17.33;100.00
53270;BME280;39159;45.634;9.420;2023-10-08T02:48:12;99595.00;;;17.28;100.00
53270;BME280;39159;45.634;9.420;2023-10-08T02:50:44;99584.78;;;17.29;100.00
53270;BME280;39159;45.634;9.420;2023-10-08T02:53:11;99587.84;;;17.27;100.00
53270;BME280;39159;45.634;9.420;2023-10-08T02:55:38;99586.25;;;17.26;100.00
53270;BME280;39159;45.634;9.420;2023-10-08T02:58:10;99590.97;;;17.26;100.00
53270;BME280;39159;45.634;9.420;2023-10-08T03:00:45;99592.47;;;17.23;100.00
53270;BME280;39159;45.634;9.420;2023-10-08T03:03:13;99591.16;;;17.20;100.00
53270;BME280;39159;45.634;9.420;2023-10-08T03:05:45;99583.25;;;17.19;100.00
53270;BME280;39159;45.634;9.420;2023-10-08T03:08:12;99589.28;;;17.12;100.00
53270;BME280;39159;45.634;9.420;2023-10-08T03:10:38;99590.56;;;17.15;100.00
53270;BME280;39159;45.634;9.420;2023-10-08T03:13:04;99594.91;;;17.16;100.00
53270;BME280;39159;45.634;9.420;2023-10-08T03:15:30;99591.69;;;17.14;100.00
53270;BME280;39159;45.634;9.420;2023-10-08T03:18:04;99588.28;;;17.17;100.00
53270;BME280;39159;45.634;9.420;2023-10-08T03:20:38;99582.50;;;17.10;100.00
53270;BME280;39159;45.634;9.420;2023-10-08T03:23:11;99582.88;;;17.20;100.00
53270;BME280;39159;45.634;9.420;2023-10-08T03:25:53;99579.22;;;17.16;100.00
53270;BME280;39159;45.634;9.420;2023-10-08T03:28:27;99587.53;;;17.08;100.00
53270;BME280;39159;45.634;9.420;2023-10-08T03:30:55;99588.81;;;17.10;100.00
53270;BME280;39159;45.634;9.420;2023-10-08T03:33:35;99586.72;;;17.07;100.00
53270;BME280;39159;45.634;9.420;2023-10-08T03:36:03;99589.28;;;17.12;100.00
53270;BME280;39159;45.634;9.420;2023-10-08T03:38:49;99576.63;;;17.11;100.00
53270;BME280;39159;45.634;9.420;2023-10-08T03:41:26;99577.78;;;17.10;100.00
53270;BME280;39159;45.634;9.420;2023-10-08T03:43:57;99578.59;;;17.11;100.00
53270;BME280;39159;45.634;9.420;2023-10-08T03:46:38;99582.81;;;17.08;100.00
53270;BME280;39159;45.634;9.420;2023-10-08T03:49:11;99578.66;;;17.02;100.00
53270;BME280;39159;45.634;9.420;2023-10-08T03:51:57;99580.47;;;16.98;100.00
53270;BME280;39159;45.634;9.420;2023-10-08T03:54:23;99586.50;;;16.91;100.00
53270;BME280;39159;45.634;9.420;2023-10-08T03:56:55;99580.88;;;16.88;100.00
53270;BME280;39159;45.634;9.420;2023-10-08T03:59:21;99575.22;;;16.84;100.00
53270;BME280;39159;45.634;9.420;2023-10-08T04:02:01;99582.00;;;16.78;100.00
53270;BME280;39159;45.634;9.420;2023-10-08T04:04:41;99570.72;;;16.71;100.00
53270;BME280;39159;45.634;9.420;2023-10-08T04:07:40;99576.59;;;16.61;100.00
53270;BME280;39159;45.634;9.420;2023-10-08T04:10:29;99569.50;;;16.60;100.00
53270;BME280;39159;45.634;9.420;2023-10-08T04:13:07;99569.34;;;16.56;100.00
53270;BME280;39159;45.634;9.420;2023-10-08T04:15:37;99579.72;;;16.59;100.00
53270;BME280;39159;45.634;9.420;2023-10-08T04:18:09;99578.09;;;16.58;100.00
53270;BME280;39159;45.634;9.420;2023-10-08T04:20:35;99586.03;;;16.60;100.00
53270;BME280;39159;45.634;9.420;2023-10-08T04:23:06;99586.34;;;16.58;100.00
53270;BME280;39159;45.634;9.420;2023-10-08T04:25:38;99585.38;;;16.54;100.00
53270;BME280;39159;45.634;9.420;2023-10-08T04:28:04;99573.25;;;16.55;100.00
53270;BME280;39159;45.634;9.420;2023-10-08T04:30:35;99576.47;;;16.57;100.00
53270;BME280;39159;45.634;9.420;2023-10-08T04:33:04;99582.78;;;16.57;100.00
53270;BME280;39159;45.634;9.420;2023-10-08T04:35:34;99573.53;;;16.62;100.00
53270;BME280;39159;45.634;9.420;2023-10-08T04:38:04;99573.25;;;16.55;100.00
53270;BME280;39159;45.634;9.420;2023-10-08T04:40:30;99574.56;;;16.49;100.00
53270;BME280;39159;45.634;9.420;2023-10-08T04:43:04;99575.03;;;16.51;100.00
53270;BME280;39159;45.634;9.420;2023-10-08T04:45:30;99576.81;;;16.55;100.00
53270;BME280;39159;45.634;9.420;2023-10-08T04:47:59;99578.09;;;16.58;100.00
53270;BME280;39159;45.634;9.420;2023-10-08T04:50:24;99573.09;;;16.51;100.00
53270;BME280;39159;45.634;9.420;2023-10-08T04:52:55;99566.63;;;16.47;100.00
53270;BME280;39159;45.634;9.420;2023-10-08T04:55:25;99578.81;;;16.46;100.00
53270;BME280;39159;45.634;9.420;2023-10-08T04:57:55;99578.13;;;16.49;100.00
53270;BME280;39159;45.634;9.420;2023-10-08T05:00:21;99571.16;;;16.52;100.00
53270;BME280;39159;45.634;9.420;2023-10-08T05:03:06;99576.69;;;16.52;100.00
53270;BME280;39159;45.634;9.420;2023-10-08T05:05:39;99577.19;;;16.45;100.00
53270;BME280;39159;45.634;9.420;2023-10-08T05:08:21;99574.31;;;16.33;100.00
53270;BME280;39159;45.634;9.420;2023-10-08T05:11:13;99574.03;;;16.26;100.00
53270;BME280;39159;45.634;9.420;2023-10-08T05:14:02;99576.97;;;16.21;100.00
53270;BME280;39159;45.634;9.420;2023-10-08T05:16:32;99579.41;;;16.13;100.00
53270;BME280;39159;45.634;9.420;2023-10-08T05:19:14;99578.31;;;16.06;100.00
53270;BME280;39159;45.634;9.420;2023-10-08T05:21:58;99573.78;;;16.10;100.00
53270;BME280;39159;45.634;9.420;2023-10-08T05:24:42;99578.31;;;16.06;100.00
53270;BME280;39159;45.634;9.420;2023-10-08T05:27:16;99571.34;;;16.08;100.00
53270;BME280;39159;45.634;9.420;2023-10-08T05:30:03;99577.66;;;16.09;100.00
53270;BME280;39159;45.634;9.420;2023-10-08T05:32:44;99566.28;;;16.19;100.00
53270;BME280;39159;45.634;9.420;2023-10-08T05:35:29;99578.56;;;16.30;100.00
53270;BME280;39159;45.634;9.420;2023-10-08T05:38:39;99585.03;;;16.34;100.00
53270;BME280;39159;45.634;9.420;2023-10-08T05:40:58;99583.22;;;16.39;100.00
53270;BME280;39159;45.634;9.420;2023-10-08T05:43:34;99583.34;;;16.42;100.00
53270;BME280;39159;45.634;9.420;2023-10-08T05:46:10;99585.31;;;16.42;100.00
53270;BME280;39159;45.634;9.420;2023-10-08T05:48:55;99583.38;;;16.33;100.00
53270;BME280;39159;45.634;9.420;2023-10-08T05:51:37;99588.06;;;16.42;100.00
53270;BME280;39159;45.634;9.420;2023-10-08T05:54:24;99591.91;;;16.49;100.00
53270;BME280;39159;45.634;9.420;2023-10-08T05:57:04;99587.34;;;16.53;100.00
53270;BME280;39159;45.634;9.420;2023-10-08T05:59:33;99593.13;;;16.61;100.00
53270;BME280;39159;45.634;9.420;2023-10-08T06:02:28;99591.69;;;16.63;100.00
53270;BME280;39159;45.634;9.420;2023-10-08T06:05:01;99601.88;;;16.63;100.00
53270;BME280;39159;45.634;9.420;2023-10-08T06:07:54;99597.56;;;16.53;100.00
53270;BME280;39159;45.634;9.420;2023-10-08T06:10:20;99597.09;;;16.51;100.00
53270;BME280;39159;45.634;9.420;2023-10-08T06:12:59;99595.56;;;16.62;100.00
53270;BME280;39159;45.634;9.420;2023-10-08T06:15:50;99605.88;;;16.74;100.00
53270;BME280;39159;45.634;9.420;2023-10-08T06:18:20;99616.06;;;16.82;100.00
53270;BME280;39159;45.634;9.420;2023-10-08T06:20:58;99606.28;;;16.93;100.00
53270;BME280;39159;45.634;9.420;2023-10-08T06:23:25;99605.22;;;17.07;100.00
53270;BME280;39159;45.634;9.420;2023-10-08T06:25:51;99607.59;;;17.17;100.00
53270;BME280;39159;45.634;9.420;2023-10-08T06:28:25;99614.63;;;17.27;100.00
53270;BME280;39159;45.634;9.420;2023-10-08T06:30:55;99608.72;;;17.37;100.00
53270;BME280;39159;45.634;9.420;2023-10-08T06:33:22;99610.00;;;17.39;100.00
53270;BME280;39159;45.634;9.420;2023-10-08T06:35:51;99609.00;;;17.44;100.00
53270;BME280;39159;45.634;9.420;2023-10-08T06:38:32;99620.16;;;17.48;100.00
53270;BME280;39159;45.634;9.420;2023-10-08T06:40:59;99613.81;;;17.47;100.00
53270;BME280;39159;45.634;9.420;2023-10-08T06:43:37;99620.75;;;17.53;100.00
53270;BME280;39159;45.634;9.420;2023-10-08T06:46:04;99615.38;;;17.57;100.00
53270;BME280;39159;45.634;9.420;2023-10-08T06:48:32;99624.38;;;17.66;100.00
53270;BME280;39159;45.634;9.420;2023-10-08T06:50:59;99624.09;;;17.80;100.00
53270;BME280;39159;45.634;9.420;2023-10-08T06:53:33;99615.66;;;17.97;100.00
53270;BME280;39159;45.634;9.420;2023-10-08T06:56:00;99624.69;;;18.19;100.00
53270;BME280;39159;45.634;9.420;2023-10-08T06:58:30;99621.97;;;18.43;100.00
53270;BME280;39159;45.634;9.420;2023-10-08T07:00:57;99626.22;;;18.66;100.00
53270;BME280;39159;45.634;9.420;2023-10-08T07:03:24;99615.84;;;18.75;100.00
53270;BME280;39159;45.634;9.420;2023-10-08T07:05:51;99622.19;;;19.00;100.00
53270;BME280;39159;45.634;9.420;2023-10-08T07:08:23;99619.72;;;19.23;100.00
53270;BME280;39159;45.634;9.420;2023-10-08T07:10:50;99622.00;;;19.45;100.00
53270;BME280;39159;45.634;9.420;2023-10-08T07:13:16;99618.91;;;19.63;100.00
53270;BME280;39159;45.634;9.420;2023-10-08T07:15:43;99629.16;;;19.75;100.00
53270;BME280;39159;45.634;9.420;2023-10-08T07:18:10;99620.97;;;19.94;100.00
53270;BME280;39159;45.634;9.420;2023-10-08T07:20:39;99621.47;;;20.12;100.00
53270;BME280;39159;45.634;9.420;2023-10-08T07:23:06;99624.78;;;20.34;100.00
53270;BME280;39159;45.634;9.420;2023-10-08T07:25:37;99628.38;;;20.50;100.00
53270;BME280;39159;45.634;9.420;2023-10-08T07:28:04;99627.38;;;20.74;100.00
53270;BME280;39159;45.634;9.420;2023-10-08T07:30:36;99619.59;;;20.80;100.00
53270;BME280;39159;45.634;9.420;2023-10-08T07:33:04;99625.50;;;20.78;100.00
53270;BME280;39159;45.634;9.420;2023-10-08T07:35:29;99619.72;;;21.03;100.00
53270;BME280;39159;45.634;9.420;2023-10-08T07:37:55;99623.78;;;21.25;100.00
53270;BME280;39159;45.634;9.420;2023-10-08T07:40:21;99617.63;;;21.51;100.00
53270;BME280;39159;45.634;9.420;2023-10-08T07:42:46;99618.78;;;21.69;100.00
53270;BME280;39159;45.634;9.420;2023-10-08T07:45:17;99625.53;;;21.88;100.00
53270;BME280;39159;45.634;9.420;2023-10-08T07:47:43;99616.78;;;21.89;100.00
53270;BME280;39159;45.634;9.420;2023-10-08T07:50:09;99627.03;;;21.85;100.00
53270;BME280;39159;45.634;9.420;2023-10-08T07:52:37;99631.31;;;21.79;100.00
53270;BME280;39159;45.634;9.420;2023-10-08T07:55:02;99626.81;;;21.94;100.00
53270;BME280;39159;45.634;9.420;2023-10-08T07:57:30;99626.66;;;22.06;100.00
53270;BME280;39159;45.634;9.420;2023-10-08T07:59:56;99624.13;;;22.21;100.00
53270;BME280;39159;45.634;9.420;2023-10-08T08:02:41;99634.28;;;22.55;100.00
53270;BME280;39159;45.634;9.420;2023-10-08T08:05:07;99630.19;;;22.72;97.46
53270;BME280;39159;45.634;9.420;2023-10-08T08:07:33;99631.47;;;22.79;97.69
53270;BME280;39159;45.634;9.420;2023-10-08T08:09:58;99619.66;;;23.12;95.25
53270;BME280;39159;45.634;9.420;2023-10-08T08:12:24;99621.56;;;23.04;93.56
53270;BME280;39159;45.634;9.420;2023-10-08T08:14:52;99625.66;;;23.14;93.39
53270;BME280;39159;45.634;9.420;2023-10-08T08:17:18;99630.69;;;23.31;93.76
53270;BME280;39159;45.634;9.420;2023-10-08T08:19:46;99628.81;;;23.39;91.39
53270;BME280;39159;45.634;9.420;2023-10-08T08:22:21;99633.41;;;23.58;91.18
53270;BME280;39159;45.634;9.420;2023-10-08T08:24:48;99626.75;;;23.66;86.25
53270;BME280;39159;45.634;9.420;2023-10-08T08:27:18;99626.81;;;23.73;88.29
53270;BME280;39159;45.634;9.420;2023-10-08T08:29:53;99624.63;;;23.90;86.99
53270;BME280;39159;45.634;9.420;2023-10-08T08:32:22;99622.19;;;24.22;86.38
53270;BME280;39159;45.634;9.420;2023-10-08T08:34:48;99630.84;;;24.51;84.72
53270;BME280;39159;45.634;9.420;2023-10-08T08:37:16;99625.09;;;24.77;84.39
53270;BME280;39159;45.634;9.420;2023-10-08T08:39:41;99625.13;;;24.85;81.85
53270;BME280;39159;45.634;9.420;2023-10-08T08:42:07;99624.47;;;25.02;81.20
53270;BME280;39159;45.634;9.420;2023-10-08T08:44:38;99630.34;;;24.90;78.73
53270;BME280;39159;45.634;9.420;2023-10-08T08:47:13;99624.63;;;24.68;80.02
53270;BME280;39159;45.634;9.420;2023-10-08T08:49:45;99619.09;;;24.75;78.53
53270;BME280;39159;45.634;9.420;2023-10-08T08:52:12;99620.84;;;24.98;79.07
53270;BME280;39159;45.634;9.420;2023-10-08T08:54:41;99622.13;;;25.11;77.68
53270;BME280;39159;45.634;9.420;2023-10-08T08:57:07;99616.22;;;25.20;76.09
53270;BME280;39159;45.634;9.420;2023-10-08T08:59:42;99632.19;;;25.23;75.13
53270;BME280;39159;45.634;9.420;2023-10-08T09:02:11;99623.13;;;25.48;75.19
53270;BME280;39159;45.634;9.420;2023-10-08T09:04:39;99622.41;;;25.65;72.73
53270;BME280;39159;45.634;9.420;2023-10-08T09:07:04;99626.03;;;25.80;70.82
53270;BME280;39159;45.634;9.420;2023-10-08T09:09:33;99618.94;;;25.97;71.40
53270;BME280;39159;45.634;9.420;2023-10-08T09:11:59;99621.25;;;25.80;69.52
53270;BME280;39159;45.634;9.420;2023-10-08T09:14:26;99621.34;;;26.09;68.83
53270;BME280;39159;45.634;9.420;2023-10-08T09:16:53;99614.16;;;26.19;65.69
53270;BME280;39159;45.634;9.420;2023-10-08T09:19:19;99624.56;;;26.15;65.92
53270;BME280;39159;45.634;9.420;2023-10-08T09:24:33;99626.63;;;26.61;64.00
53270;BME280;39159;45.634;9.420;2023-10-08T09:27:05;99624.59;;;26.72;62.55
53270;BME280;39159;45.634;9.420;2023-10-08T09:29:31;99629.03;;;26.62;62.26
53270;BME280;39159;45.634;9.420;2023-10-08T09:31:58;99627.81;;;26.88;61.36
53270;BME280;39159;45.634;9.420;2023-10-08T09:34:30;99620.22;;;26.93;59.83
53270;BME280;39159;45.634;9.420;2023-10-08T09:36:56;99613.34;;;27.12;59.28
53270;BME280;39159;45.634;9.420;2023-10-08T09:39:23;99621.41;;;26.95;60.10
53270;BME280;39159;45.634;9.420;2023-10-08T09:41:58;99614.59;;;27.00;62.30
53270;BME280;39159;45.634;9.420;2023-10-08T09:44:24;99618.56;;;27.02;59.97
53270;BME280;39159;45.634;9.420;2023-10-08T09:46:57;99618.94;;;27.15;59.71
53270;BME280;39159;45.634;9.420;2023-10-08T09:49:30;99612.13;;;27.27;60.29
53270;BME280;39159;45.634;9.420;2023-10-08T09:52:00;99613.31;;;27.33;61.00
53270;BME280;39159;45.634;9.420;2023-10-08T09:54:33;99614.13;;;27.37;61.01
53270;BME280;39159;45.634;9.420;2023-10-08T09:57:05;99606.47;;;27.45;60.07
53270;BME280;39159;45.634;9.420;2023-10-08T09:59:33;99614.00;;;27.59;58.11
53270;BME280;39159;45.634;9.420;2023-10-08T10:01:59;99606.47;;;27.48;58.77
53270;BME280;39159;45.634;9.420;2023-10-08T10:04:25;99614.72;;;27.84;58.23
53270;BME280;39159;45.634;9.420;2023-10-08T10:06:55;99611.88;;;27.92;57.33
53270;BME280;39159;45.634;9.420;2023-10-08T10:09:24;99602.53;;;28.13;57.14
53270;BME280;39159;45.634;9.420;2023-10-08T10:11:51;99601.19;;;28.31;56.46
53270;BME280;39159;45.634;9.420;2023-10-08T10:14:17;99597.44;;;28.45;54.45
53270;BME280;39159;45.634;9.420;2023-10-08T10:17:15;99600.69;;;28.47;55.00
53270;BME280;39159;45.634;9.420;2023-10-08T10:19:42;99604.16;;;28.62;53.21
53270;BME280;39159;45.634;9.420;2023-10-08T10:22:13;99601.03;;;28.53;54.97
53270;BME280;39159;45.634;9.420;2023-10-08T10:24:41;99604.47;;;28.75;53.65
53270;BME280;39159;45.634;9.420;2023-10-08T10:27:14;99597.22;;;28.78;52.26
53270;BME280;39159;45.634;9.420;2023-10-08T10:29:41;99605.53;;;28.40;52.25
53270;BME280;39159;45.634;9.420;2023-10-08T10:32:10;99606.19;;;28.62;51.34
53270;BME280;39159;45.634;9.420;2023-10-08T10:34:39;99603.28;;;28.72;51.82
53270;BME280;39159;45.634;9.420;2023-10-08T10:37:04;99599.97;;;28.33;50.77
53270;BME280;39159;45.634;9.420;2023-10-08T10:39:54;99604.81;;;28.28;50.88
53270;BME280;39159;45.634;9.420;2023-10-08T10:42:21;99605.53;;;28.40;50.82
53270;BME280;39159;45.634;9.420;2023-10-08T10:44:48;99599.00;;;28.57;50.22
53270;BME280;39159;45.634;9.420;2023-10-08T10:47:15;99597.50;;;28.87;49.36
53270;BME280;39159;45.634;9.420;2023-10-08T10:49:46;99585.63;;;28.72;49.22
53270;BME280;39159;45.634;9.420;2023-10-08T10:52:20;99587.06;;;28.42;49.85
53270;BME280;39159;45.634;9.420;2023-10-08T10:55:07;99584.50;;;28.62;50.01
53270;BME280;39159;45.634;9.420;2023-10-08T10:57:42;99581.22;;;28.71;50.45
53270;BME280;39159;45.634;9.420;2023-10-08T11:00:09;99573.47;;;28.86;48.76
53270;BME280;39159;45.634;9.420;2023-10-08T11:03:04;99574.00;;;29.08;48.46
53270;BME280;39159;45.634;9.420;2023-10-08T11:05:42;99567.84;;;29.24;47.81
53270;BME280;39159;45.634;9.420;2023-10-08T11:08:13;99579.38;;;29.33;47.13
53270;BME280;39159;45.634;9.420;2023-10-08T11:10:42;99562.59;;;29.57;47.04
53270;BME280;39159;45.634;9.420;2023-10-08T11:13:32;99569.06;;;29.53;46.98
53270;BME280;39159;45.634;9.420;2023-10-08T11:16:04;99564.59;;;29.56;45.71
53270;BME280;39159;45.634;9.420;2023-10-08T11:18:30;99560.50;;;29.64;45.85
53270;BME280;39159;45.634;9.420;2023-10-08T11:21:09;99557.19;;;29.39;46.30
53270;BME280;39159;45.634;9.420;2023-10-08T11:23:48;99561.78;;;29.56;47.05
53270;BME280;39159;45.634;9.420;2023-10-08T11:26:37;99550.97;;;29.85;46.22
53270;BME280;39159;45.634;9.420;2023-10-08T11:29:19;99547.56;;;29.98;45.57
53270;BME280;39159;45.634;9.420;2023-10-08T11:31:51;99558.72;;;30.05;43.97
53270;BME280;39159;45.634;9.420;2023-10-08T11:34:16;99551.50;;;30.04;44.76
53270;BME280;39159;45.634;9.420;2023-10-08T11:36:52;99547.88;;;29.76;45.59
53270;BME280;39159;45.634;9.420;2023-10-08T11:39:18;99545.78;;;29.84;45.03
53270;BME280;39159;45.634;9.420;2023-10-08T11:42:04;99543.00;;;29.80;43.87
53270;BME280;39159;45.634;9.420;2023-10-08T11:44:32;99531.38;;;29.78;44.93
53270;BME280;39159;45.634;9.420;2023-10-08T11:47:01;99535.09;;;29.68;45.57
53270;BME280;39159;45.634;9.420;2023-10-08T11:49:36;99529.06;;;29.96;45.97
53270;BME280;39159;45.634;9.420;2023-10-08T11:52:02;99529.59;;;30.15;45.76
53270;BME280;39159;45.634;9.420;2023-10-08T11:54:27;99521.69;;;30.06;45.39
53270;BME280;39159;45.634;9.420;2023-10-08T11:56:53;99521.59;;;30.37;44.41
53270;BME280;39159;45.634;9.420;2023-10-08T11:59:18;99526.75;;;29.91;44.75
53270;BME280;39159;45.634;9.420;2023-10-08T12:01:44;99512.81;;;30.35;44.24
53270;BME280;39159;45.634;9.420;2023-10-08T12:04:11;99506.16;;;30.45;44.95
53270;BME280;39159;45.634;9.420;2023-10-08T12:06:42;99512.41;;;30.56;44.26
53270;BME280;39159;45.634;9.420;2023-10-08T12:09:17;99505.88;;;30.40;45.02
53270;BME280;39159;45.634;9.420;2023-10-08T12:11:47;99508.38;;;30.34;44.17
53270;BME280;39159;45.634;9.420;2023-10-08T12:14:12;99492.09;;;30.22;44.76
53270;BME280;39159;45.634;9.420;2023-10-08T12:16:39;99490.81;;;30.26;44.15
53270;BME280;39159;45.634;9.420;2023-10-08T12:19:07;99487.56;;;30.51;43.95
53270;BME280;39159;45.634;9.420;2023-10-08T12:21:42;99490.75;;;30.30;44.29
53270;BME280;39159;45.634;9.420;2023-10-08T12:24:11;99480.53;;;30.40;44.46
53270;BME280;39159;45.634;9.420;2023-10-08T12:26:38;99480.94;;;30.62;43.54
53270;BME280;39159;45.634;9.420;2023-10-08T12:29:13;99477.59;;;30.47;43.96
53270;BME280;39159;45.634;9.420;2023-10-08T12:31:45;99478.97;;;30.58;43.90
53270;BME280;39159;45.634;9.420;2023-10-08T12:34:13;99474.47;;;30.41;43.51
53270;BME280;39159;45.634;9.420;2023-10-08T12:36:38;99472.03;;;30.63;44.09
53270;BME280;39159;45.634;9.420;2023-10-08T12:39:04;99475.63;;;30.87;43.18
53270;BME280;39159;45.634;9.420;2023-10-08T12:41:43;99474.94;;;30.60;42.98
53270;BME280;39159;45.634;9.420;2023-10-08T12:44:12;99466.34;;;30.67;43.26
53270;BME280;39159;45.634;9.420;2023-10-08T12:46:40;99467.19;;;30.64;43.22
53270;BME280;39159;45.634;9.420;2023-10-08T12:49:09;99464.16;;;30.74;43.31
53270;BME280;39159;45.634;9.420;2023-10-08T12:51:34;99461.13;;;30.65;42.69
53270;BME280;39159;45.634;9.420;2023-10-08T12:54:01;99458.03;;;30.60;43.46
53270;BME280;39159;45.634;9.420;2023-10-08T12:56:36;99454.13;;;30.73;43.09
53270;BME280;39159;45.634;9.420;2023-10-08T12:59:05;99456.75;;;30.84;43.20
53270;BME280;39159;45.634;9.420;2023-10-08T13:01:34;99457.03;;;30.90;42.35
53270;BME280;39159;45.634;9.420;2023-10-08T13:04:01;99450.63;;;30.89;42.10
53270;BME280;39159;45.634;9.420;2023-10-08T13:06:32;99452.50;;;30.96;43.14
53270;BME280;39159;45.634;9.420;2023-10-08T13:08:58;99447.44;;;30.87;43.11
53270;BME280;39159;45.634;9.420;2023-10-08T13:11:25;99440.59;;;30.88;42.77
53270;BME280;39159;45.634;9.420;2023-10-08T13:13:52;99442.78;;;30.97;43.28
53270;BME280;39159;45.634;9.420;2023-10-08T13:16:19;99433.75;;;31.06;42.17
53270;BME280;39159;45.634;9.420;2023-10-08T13:18:47;99426.53;;;31.05;44.07